sensor_id;sensor_type;location;lat;lon;timestamp;temperature;humidity
61374;DHT22;47242;48.158;-1.586;2024-01-16T05:31:31;1.00;74.90
61374;DHT22;47242;48.158;-1.586;2024-01-16T05:33:57;1.00;74.90
61374;DHT22;47242;48.158;-1.586;2024-01-16T05:36:23;1.10;74.70
61374;DHT22;47242;48.158;-1.586;2024-01-16T05:38:50;1.00;75.00
61374;DHT22;47242;48.158;-1.586;2024-01-16T05:41:15;1.00;75.30
61374;DHT22;47242;48.158;-1.586;2024-01-16T05:43:41;1.00;75.70
61374;DHT22;47242;48.158;-1.586;2024-01-16T05:46:10;1.00;75.50
61374;DHT22;47242;48.158;-1.586;2024-01-16T05:48:35;1.00;75.40
61374;DHT22;47242;48.158;-1.586;2024-01-16T05:51:01;1.00;75.20
61374;DHT22;47242;48.158;-1.586;2024-01-16T05:53:27;1.10;75.10
61374;DHT22;47242;48.158;-1.586;2024-01-16T05:55:52;1.10;75.40
61374;DHT22;47242;48.158;-1.586;2024-01-16T05:58:19;1.10;75.70
61374;DHT22;47242;48.158;-1.586;2024-01-16T06:00:45;1.00;75.60
61374;DHT22;47242;48.158;-1.586;2024-01-16T06:03:11;1.00;75.70
61374;DHT22;47242;48.158;-1.586;2024-01-16T06:05:36;1.00;75.40
61374;DHT22;47242;48.158;-1.586;2024-01-16T06:08:02;1.10;75.20
61374;DHT22;47242;48.158;-1.586;2024-01-16T06:10:28;1.10;74.90
61374;DHT22;47242;48.158;-1.586;2024-01-16T06:12:54;1.10;74.80
61374;DHT22;47242;48.158;-1.586;2024-01-16T06:15:19;1.20;75.50
61374;DHT22;47242;48.158;-1.586;2024-01-16T06:17:45;1.20;75.00
61374;DHT22;47242;48.158;-1.586;2024-01-16T06:20:10;1.20;74.80
61374;DHT22;47242;48.158;-1.586;2024-01-16T06:22:36;1.20;74.90
61374;DHT22;47242;48.158;-1.586;2024-01-16T06:25:02;1.20;74.90
61374;DHT22;47242;48.158;-1.586;2024-01-16T06:27:27;1.20;75.00
61374;DHT22;47242;48.158;-1.586;2024-01-16T06:29:53;1.10;75.00
61374;DHT22;47242;48.158;-1.586;2024-01-16T06:32:19;1.10;75.60
61374;DHT22;47242;48.158;-1.586;2024-01-16T06:34:44;1.10;75.20
61374;DHT22;47242;48.158;-1.586;2024-01-16T06:37:10;1.20;74.80
61374;DHT22;47242;48.158;-1.586;2024-01-16T06:39:36;1.20;74.80
61374;DHT22;47242;48.158;-1.586;2024-01-16T06:42:03;1.20;74.70
61374;DHT22;47242;48.158;-1.586;2024-01-16T06:44:30;1.30;74.70
61374;DHT22;47242;48.158;-1.586;2024-01-16T06:46:55;1.30;74.70
61374;DHT22;47242;48.158;-1.586;2024-01-16T06:49:21;1.30;75.40
61374;DHT22;47242;48.158;-1.586;2024-01-16T06:51:46;1.40;75.00
61374;DHT22;47242;48.158;-1.586;2024-01-16T06:54:12;1.30;74.80
61374;DHT22;47242;48.158;-1.586;2024-01-16T06:56:38;1.30;75.00
61374;DHT22;47242;48.158;-1.586;2024-01-16T06:59:03;1.30;74.80
61374;DHT22;47242;48.158;-1.586;2024-01-16T07:01:29;1.40;74.40
61374;DHT22;47242;48.158;-1.586;2024-01-16T07:03:56;1.40;74.10
61374;DHT22;47242;48.158;-1.586;2024-01-16T07:06:21;1.40;73.80
61374;DHT22;47242;48.158;-1.586;2024-01-16T07:08:47;1.30;74.00
61374;DHT22;47242;48.158;-1.586;2024-01-16T07:11:13;1.30;74.10
61374;DHT22;47242;48.158;-1.586;2024-01-16T07:13:43;1.30;74.20
61374;DHT22;47242;48.158;-1.586;2024-01-16T07:16:12;1.30;73.50
61374;DHT22;47242;48.158;-1.586;2024-01-16T07:18:38;1.40;73.70
61374;DHT22;47242;48.158;-1.586;2024-01-16T07:21:04;1.40;73.90
61374;DHT22;47242;48.158;-1.586;2024-01-16T07:23:40;1.50;73.70
61374;DHT22;47242;48.158;-1.586;2024-01-16T07:26:06;1.50;73.70
61374;DHT22;47242;48.158;-1.586;2024-01-16T07:28:32;1.50;73.90
61374;DHT22;47242;48.158;-1.586;2024-01-16T07:30:58;1.50;73.90
61374;DHT22;47242;48.158;-1.586;2024-01-16T07:33:24;1.60;73.20
61374;DHT22;47242;48.158;-1.586;2024-01-16T07:35:49;1.60;73.60
61374;DHT22;47242;48.158;-1.586;2024-01-16T07:38:15;1.60;73.40
61374;DHT22;47242;48.158;-1.586;2024-01-16T07:40:40;1.60;72.70
61374;DHT22;47242;48.158;-1.586;2024-01-16T07:43:06;1.70;72.40
61374;DHT22;47242;48.158;-1.586;2024-01-16T07:45:32;1.70;72.00
61374;DHT22;47242;48.158;-1.586;2024-01-16T07:47:58;1.60;71.90
61374;DHT22;47242;48.158;-1.586;2024-01-16T07:50:23;1.70;71.60
61374;DHT22;47242;48.158;-1.586;2024-01-16T07:52:49;1.70;72.20
61374;DHT22;47242;48.158;-1.586;2024-01-16T07:55:15;1.70;72.30
61374;DHT22;47242;48.158;-1.586;2024-01-16T07:57:41;1.70;72.60
61374;DHT22;47242;48.158;-1.586;2024-01-16T08:00:07;1.70;73.20
61374;DHT22;47242;48.158;-1.586;2024-01-16T08:02:37;1.70;72.60
61374;DHT22;47242;48.158;-1.586;2024-01-16T08:05:04;1.70;72.90
61374;DHT22;47242;48.158;-1.586;2024-01-16T08:07:29;1.70;72.70
61374;DHT22;47242;48.158;-1.586;2024-01-16T08:09:55;1.70;72.70
61374;DHT22;47242;48.158;-1.586;2024-01-16T08:12:21;1.80;72.30
61374;DHT22;47242;48.158;-1.586;2024-01-16T08:14:47;1.90;72.10
61374;DHT22;47242;48.158;-1.586;2024-01-16T08:17:12;2.00;71.80
61374;DHT22;47242;48.158;-1.586;2024-01-16T08:19:38;2.10;71.60
61374;DHT22;47242;48.158;-1.586;2024-01-16T08:22:04;2.10;71.60
61374;DHT22;47242;48.158;-1.586;2024-01-16T08:24:30;2.10;71.60
61374;DHT22;47242;48.158;-1.586;2024-01-16T08:26:56;2.10;72.40
61374;DHT22;47242;48.158;-1.586;2024-01-16T08:29:24;2.10;72.70
61374;DHT22;47242;48.158;-1.586;2024-01-16T08:31:50;2.10;73.70
61374;DHT22;47242;48.158;-1.586;2024-01-16T08:34:19;2.10;73.50
61374;DHT22;47242;48.158;-1.586;2024-01-16T08:36:45;2.10;72.60
61374;DHT22;47242;48.158;-1.586;2024-01-16T08:39:11;2.20;73.00
61374;DHT22;47242;48.158;-1.586;2024-01-16T08:41:37;2.20;73.00
61374;DHT22;47242;48.158;-1.586;2024-01-16T08:44:03;2.20;73.10
61374;DHT22;47242;48.158;-1.586;2024-01-16T08:46:29;2.20;73.00
61374;DHT22;47242;48.158;-1.586;2024-01-16T08:48:55;2.20;72.30
61374;DHT22;47242;48.158;-1.586;2024-01-16T08:51:20;2.30;72.50
61374;DHT22;47242;48.158;-1.586;2024-01-16T08:53:46;2.30;73.40
61374;DHT22;47242;48.158;-1.586;2024-01-16T08:56:12;2.30;73.10
61374;DHT22;47242;48.158;-1.586;2024-01-16T08:58:38;2.40;71.20
61374;DHT22;47242;48.158;-1.586;2024-01-16T09:01:04;2.40;71.40
61374;DHT22;47242;48.158;-1.586;2024-01-16T09:03:34;2.40;71.20
61374;DHT22;47242;48.158;-1.586;2024-01-16T09:06:00;2.40;71.20
61374;DHT22;47242;48.158;-1.586;2024-01-16T09:08:26;2.50;71.00
61374;DHT22;47242;48.158;-1.586;2024-01-16T09:10:53;2.50;71.10
61374;DHT22;47242;48.158;-1.586;2024-01-16T09:13:18;2.60;71.40
61374;DHT22;47242;48.158;-1.586;2024-01-16T09:15:46;2.70;71.30
61374;DHT22;47242;48.158;-1.586;2024-01-16T09:18:12;2.70;71.20
61374;DHT22;47242;48.158;-1.586;2024-01-16T09:20:38;2.70;71.00
61374;DHT22;47242;48.158;-1.586;2024-01-16T09:23:04;2.70;71.10
61374;DHT22;47242;48.158;-1.586;2024-01-16T09:25:29;2.80;70.80
61374;DHT22;47242;48.158;-1.586;2024-01-16T09:27:55;2.80;70.10
61374;DHT22;47242;48.158;-1.586;2024-01-16T09:30:21;2.90;70.20
61374;DHT22;47242;48.158;-1.586;2024-01-16T09:32:48;2.90;70.10
61374;DHT22;47242;48.158;-1.586;2024-01-16T09:35:14;3.10;69.80
61374;DHT22;47242;48.158;-1.586;2024-01-16T09:37:40;3.10;69.70
61374;DHT22;47242;48.158;-1.586;2024-01-16T09:40:06;3.20;69.10
61374;DHT22;47242;48.158;-1.586;2024-01-16T09:42:32;3.50;68.90
61374;DHT22;47242;48.158;-1.586;2024-01-16T09:45:00;3.80;67.60
61374;DHT22;47242;48.158;-1.586;2024-01-16T09:47:30;4.10;67.00
61374;DHT22;47242;48.158;-1.586;2024-01-16T09:49:59;4.30;65.70
61374;DHT22;47242;48.158;-1.586;2024-01-16T09:52:27;4.20;64.60
61374;DHT22;47242;48.158;-1.586;2024-01-16T09:54:52;4.20;64.10
61374;DHT22;47242;48.158;-1.586;2024-01-16T09:57:19;4.10;64.30
61374;DHT22;47242;48.158;-1.586;2024-01-16T09:59:48;4.00;63.50
61374;DHT22;47242;48.158;-1.586;2024-01-16T10:02:14;4.00;63.00
61374;DHT22;47242;48.158;-1.586;2024-01-16T10:04:43;3.90;63.60
61374;DHT22;47242;48.158;-1.586;2024-01-16T10:07:10;3.90;63.60
61374;DHT22;47242;48.158;-1.586;2024-01-16T10:09:38;3.80;63.80
61374;DHT22;47242;48.158;-1.586;2024-01-16T10:12:05;3.80;64.20
61374;DHT22;47242;48.158;-1.586;2024-01-16T10:14:33;3.80;64.80
61374;DHT22;47242;48.158;-1.586;2024-01-16T10:16:59;3.70;63.70
61374;DHT22;47242;48.158;-1.586;2024-01-16T10:19:28;3.70;63.50
61374;DHT22;47242;48.158;-1.586;2024-01-16T10:22:04;3.60;63.80
61374;DHT22;47242;48.158;-1.586;2024-01-16T10:24:30;3.60;64.20
61374;DHT22;47242;48.158;-1.586;2024-01-16T10:27:00;3.50;64.50
61374;DHT22;47242;48.158;-1.586;2024-01-16T10:29:28;3.50;64.70
61374;DHT22;47242;48.158;-1.586;2024-01-16T10:31:53;3.50;64.80
61374;DHT22;47242;48.158;-1.586;2024-01-16T10:34:20;3.50;65.20
61374;DHT22;47242;48.158;-1.586;2024-01-16T10:36:51;3.70;65.30
61374;DHT22;47242;48.158;-1.586;2024-01-16T10:39:18;3.70;65.60
61374;DHT22;47242;48.158;-1.586;2024-01-16T10:41:57;3.60;65.10
61374;DHT22;47242;48.158;-1.586;2024-01-16T10:44:23;3.60;65.30
61374;DHT22;47242;48.158;-1.586;2024-01-16T10:46:49;3.70;65.60
61374;DHT22;47242;48.158;-1.586;2024-01-16T10:49:14;3.70;66.00
61374;DHT22;47242;48.158;-1.586;2024-01-16T10:51:43;3.80;66.40
61374;DHT22;47242;48.158;-1.586;2024-01-16T10:54:12;3.90;66.50
61374;DHT22;47242;48.158;-1.586;2024-01-16T10:56:45;4.00;66.10
61374;DHT22;47242;48.158;-1.586;2024-01-16T10:59:24;4.20;66.00
61374;DHT22;47242;48.158;-1.586;2024-01-16T11:01:52;4.30;65.80
61374;DHT22;47242;48.158;-1.586;2024-01-16T11:04:20;4.30;65.40
61374;DHT22;47242;48.158;-1.586;2024-01-16T11:06:47;4.30;65.10
61374;DHT22;47242;48.158;-1.586;2024-01-16T11:09:14;4.40;65.20
61374;DHT22;47242;48.158;-1.586;2024-01-16T11:11:46;4.50;65.40
61374;DHT22;47242;48.158;-1.586;2024-01-16T11:14:14;4.50;64.90
61374;DHT22;47242;48.158;-1.586;2024-01-16T11:16:41;4.40;64.60
61374;DHT22;47242;48.158;-1.586;2024-01-16T11:19:10;4.50;64.80
61374;DHT22;47242;48.158;-1.586;2024-01-16T11:21:37;4.50;65.30
61374;DHT22;47242;48.158;-1.586;2024-01-16T11:24:03;4.40;65.10
61374;DHT22;47242;48.158;-1.586;2024-01-16T11:26:33;4.30;65.50
61374;DHT22;47242;48.158;-1.586;2024-01-16T11:29:00;4.30;65.00
61374;DHT22;47242;48.158;-1.586;2024-01-16T11:31:35;4.30;65.30
61374;DHT22;47242;48.158;-1.586;2024-01-16T11:34:02;4.40;65.10
61374;DHT22;47242;48.158;-1.586;2024-01-16T11:39:19;4.50;64.80
61374;DHT22;47242;48.158;-1.586;2024-01-16T11:41:56;4.60;64.70
61374;DHT22;47242;48.158;-1.586;2024-01-16T11:44:47;4.80;65.00
61374;DHT22;47242;48.158;-1.586;2024-01-16T11:47:21;4.90;63.20
61374;DHT22;47242;48.158;-1.586;2024-01-16T11:49:50;4.80;63.10
61374;DHT22;47242;48.158;-1.586;2024-01-16T11:52:39;4.80;62.10
61374;DHT22;47242;48.158;-1.586;2024-01-16T11:58:19;4.90;61.50
61374;DHT22;47242;48.158;-1.586;2024-01-16T12:00:48;5.00;61.20
61374;DHT22;47242;48.158;-1.586;2024-01-16T12:03:18;5.10;60.90
61374;DHT22;47242;48.158;-1.586;2024-01-16T12:05:44;5.10;59.80
61374;DHT22;47242;48.158;-1.586;2024-01-16T12:08:10;5.10;59.30
61374;DHT22;47242;48.158;-1.586;2024-01-16T12:10:46;5.20;60.00
61374;DHT22;47242;48.158;-1.586;2024-01-16T12:13:13;5.20;59.20
61374;DHT22;47242;48.158;-1.586;2024-01-16T12:15:38;5.20;58.60
61374;DHT22;47242;48.158;-1.586;2024-01-16T12:18:04;5.20;58.00
61374;DHT22;47242;48.158;-1.586;2024-01-16T12:20:31;5.20;58.30
61374;DHT22;47242;48.158;-1.586;2024-01-16T12:22:59;5.40;58.10
61374;DHT22;47242;48.158;-1.586;2024-01-16T12:25:30;5.30;56.80
61374;DHT22;47242;48.158;-1.586;2024-01-16T12:27:59;5.30;57.60
61374;DHT22;47242;48.158;-1.586;2024-01-16T12:30:35;5.30;57.00
61374;DHT22;47242;48.158;-1.586;2024-01-16T12:33:08;5.40;56.50
61374;DHT22;47242;48.158;-1.586;2024-01-16T12:35:38;5.40;57.50
61374;DHT22;47242;48.158;-1.586;2024-01-16T12:38:06;5.40;57.50
61374;DHT22;47242;48.158;-1.586;2024-01-16T12:40:36;5.40;56.90
61374;DHT22;47242;48.158;-1.586;2024-01-16T12:43:03;5.40;57.20
61374;DHT22;47242;48.158;-1.586;2024-01-16T12:45:29;5.50;56.70
61374;DHT22;47242;48.158;-1.586;2024-01-16T12:47:55;5.40;56.80
61374;DHT22;47242;48.158;-1.586;2024-01-16T12:50:25;5.30;56.40
61374;DHT22;47242;48.158;-1.586;2024-01-16T12:55:28;5.20;57.90
61374;DHT22;47242;48.158;-1.586;2024-01-16T12:58:19;5.20;57.10
61374;DHT22;47242;48.158;-1.586;2024-01-16T13:00:49;5.20;57.10
61374;DHT22;47242;48.158;-1.586;2024-01-16T13:03:20;5.10;56.70
61374;DHT22;47242;48.158;-1.586;2024-01-16T13:05:59;5.10;57.00
61374;DHT22;47242;48.158;-1.586;2024-01-16T13:08:26;5.20;58.40
61374;DHT22;47242;48.158;-1.586;2024-01-16T13:11:08;5.20;57.30
61374;DHT22;47242;48.158;-1.586;2024-01-16T13:13:35;5.20;57.20
61374;DHT22;47242;48.158;-1.586;2024-01-16T13:16:03;5.20;57.60
61374;DHT22;47242;48.158;-1.586;2024-01-16T13:18:31;5.20;57.50
61374;DHT22;47242;48.158;-1.586;2024-01-16T13:20:58;5.20;57.80
61374;DHT22;47242;48.158;-1.586;2024-01-16T13:23:25;5.20;57.60
61374;DHT22;47242;48.158;-1.586;2024-01-16T13:25:51;5.20;57.60
61374;DHT22;47242;48.158;-1.586;2024-01-16T13:28:19;5.20;58.80
61374;DHT22;47242;48.158;-1.586;2024-01-16T13:30:46;5.20;58.60
61374;DHT22;47242;48.158;-1.586;2024-01-16T13:33:12;5.20;58.30
61374;DHT22;47242;48.158;-1.586;2024-01-16T13:35:40;5.20;57.60
61374;DHT22;47242;48.158;-1.586;2024-01-16T13:38:07;5.20;57.50
61374;DHT22;47242;48.158;-1.586;2024-01-16T13:40:33;5.10;57.70
61374;DHT22;47242;48.158;-1.586;2024-01-16T13:43:00;5.10;57.40
61374;DHT22;47242;48.158;-1.586;2024-01-16T13:45:26;5.10;57.60
61374;DHT22;47242;48.158;-1.586;2024-01-16T13:47:52;5.00;57.60
61374;DHT22;47242;48.158;-1.586;2024-01-16T13:50:18;5.00;57.50
61374;DHT22;47242;48.158;-1.586;2024-01-16T13:52:43;5.00;58.00
61374;DHT22;47242;48.158;-1.586;2024-01-16T13:55:09;5.10;57.60
61374;DHT22;47242;48.158;-1.586;2024-01-16T13:57:35;5.10;58.10
61374;DHT22;47242;48.158;-1.586;2024-01-16T14:00:03;5.10;57.60
61374;DHT22;47242;48.158;-1.586;2024-01-16T14:02:29;5.10;58.10
61374;DHT22;47242;48.158;-1.586;2024-01-16T14:04:55;5.20;58.10
61374;DHT22;47242;48.158;-1.586;2024-01-16T14:07:21;5.20;57.70
61374;DHT22;47242;48.158;-1.586;2024-01-16T14:09:47;5.20;57.90
61374;DHT22;47242;48.158;-1.586;2024-01-16T14:12:13;5.20;58.00
61374;DHT22;47242;48.158;-1.586;2024-01-16T14:14:40;5.20;58.30
61374;DHT22;47242;48.158;-1.586;2024-01-16T14:17:07;5.10;57.80
61374;DHT22;47242;48.158;-1.586;2024-01-16T14:19:35;5.10;58.00
61374;DHT22;47242;48.158;-1.586;2024-01-16T14:22:02;5.20;58.70
61374;DHT22;47242;48.158;-1.586;2024-01-16T14:24:28;5.20;58.50
61374;DHT22;47242;48.158;-1.586;2024-01-16T14:26:54;5.20;58.50
61374;DHT22;47242;48.158;-1.586;2024-01-16T14:29:22;5.20;58.50
61374;DHT22;47242;48.158;-1.586;2024-01-16T14:31:48;5.20;59.30
61374;DHT22;47242;48.158;-1.586;2024-01-16T14:34:14;5.10;57.40
61374;DHT22;47242;48.158;-1.586;2024-01-16T14:36:41;5.10;57.70
61374;DHT22;47242;48.158;-1.586;2024-01-16T14:39:07;5.00;58.00
61374;DHT22;47242;48.158;-1.586;2024-01-16T14:41:39;5.00;58.40
61374;DHT22;47242;48.158;-1.586;2024-01-16T14:44:05;4.90;58.20
61374;DHT22;47242;48.158;-1.586;2024-01-16T14:46:31;4.80;58.30
61374;DHT22;47242;48.158;-1.586;2024-01-16T14:48:58;4.80;59.20
61374;DHT22;47242;48.158;-1.586;2024-01-16T14:51:24;4.80;58.60
61374;DHT22;47242;48.158;-1.586;2024-01-16T14:53:50;4.70;58.80
61374;DHT22;47242;48.158;-1.586;2024-01-16T14:56:16;4.80;59.10
61374;DHT22;47242;48.158;-1.586;2024-01-16T14:58:43;4.80;59.20
61374;DHT22;47242;48.158;-1.586;2024-01-16T15:01:09;4.80;59.20
61374;DHT22;47242;48.158;-1.586;2024-01-16T15:03:36;4.70;59.20
61374;DHT22;47242;48.158;-1.586;2024-01-16T15:06:02;4.70;59.20
61374;DHT22;47242;48.158;-1.586;2024-01-16T15:08:28;4.70;59.50
61374;DHT22;47242;48.158;-1.586;2024-01-16T15:10:56;4.60;59.40
61374;DHT22;47242;48.158;-1.586;2024-01-16T15:13:22;4.60;59.80
61374;DHT22;47242;48.158;-1.586;2024-01-16T15:15:49;4.70;60.30
61374;DHT22;47242;48.158;-1.586;2024-01-16T15:18:17;4.60;60.80
61374;DHT22;47242;48.158;-1.586;2024-01-16T15:20:42;4.60;60.70
61374;DHT22;47242;48.158;-1.586;2024-01-16T15:23:08;4.60;61.30
61374;DHT22;47242;48.158;-1.586;2024-01-16T15:25:33;4.60;61.50
61374;DHT22;47242;48.158;-1.586;2024-01-16T15:27:59;4.60;61.30
61374;DHT22;47242;48.158;-1.586;2024-01-16T15:30:25;4.50;61.30
61374;DHT22;47242;48.158;-1.586;2024-01-16T15:32:57;4.50;61.00
61374;DHT22;47242;48.158;-1.586;2024-01-16T15:35:22;4.50;61.00
61374;DHT22;47242;48.158;-1.586;2024-01-16T15:37:48;4.50;60.70
61374;DHT22;47242;48.158;-1.586;2024-01-16T15:40:14;4.40;60.20
61374;DHT22;47242;48.158;-1.586;2024-01-16T15:42:41;4.40;60.40
61374;DHT22;47242;48.158;-1.586;2024-01-16T15:45:08;4.30;60.40
61374;DHT22;47242;48.158;-1.586;2024-01-16T15:47:35;4.30;60.50
61374;DHT22;47242;48.158;-1.586;2024-01-16T15:50:01;4.30;60.60
61374;DHT22;47242;48.158;-1.586;2024-01-16T15:52:26;4.20;60.70
61374;DHT22;47242;48.158;-1.586;2024-01-16T15:54:52;4.20;60.90
61374;DHT22;47242;48.158;-1.586;2024-01-16T15:57:19;4.20;61.20
61374;DHT22;47242;48.158;-1.586;2024-01-16T15:59:44;4.20;61.20
61374;DHT22;47242;48.158;-1.586;2024-01-16T16:02:10;4.20;61.70
61374;DHT22;47242;48.158;-1.586;2024-01-16T16:04:35;4.20;61.90
61374;DHT22;47242;48.158;-1.586;2024-01-16T16:07:02;4.20;62.20
61374;DHT22;47242;48.158;-1.586;2024-01-16T16:09:28;4.10;62.30
61374;DHT22;47242;48.158;-1.586;2024-01-16T16:11:54;4.10;62.60
61374;DHT22;47242;48.158;-1.586;2024-01-16T16:14:20;4.10;62.70
61374;DHT22;47242;48.158;-1.586;2024-01-16T16:16:50;4.00;62.70
61374;DHT22;47242;48.158;-1.586;2024-01-16T16:19:16;4.00;62.70
61374;DHT22;47242;48.158;-1.586;2024-01-16T16:21:42;4.00;62.70
61374;DHT22;47242;48.158;-1.586;2024-01-16T16:24:07;3.90;63.00
61374;DHT22;47242;48.158;-1.586;2024-01-16T16:26:35;3.90;63.40
61374;DHT22;47242;48.158;-1.586;2024-01-16T16:29:06;3.90;63.20
61374;DHT22;47242;48.158;-1.586;2024-01-16T16:31:32;3.80;63.60
61374;DHT22;47242;48.158;-1.586;2024-01-16T16:34:05;3.80;63.70
61374;DHT22;47242;48.158;-1.586;2024-01-16T16:36:31;3.80;63.90
61374;DHT22;47242;48.158;-1.586;2024-01-16T16:38:57;3.80;63.80
61374;DHT22;47242;48.158;-1.586;2024-01-16T16:41:24;3.90;63.50
61374;DHT22;47242;48.158;-1.586;2024-01-16T16:43:50;3.80;63.70
61374;DHT22;47242;48.158;-1.586;2024-01-16T16:46:16;3.80;63.90
61374;DHT22;47242;48.158;-1.586;2024-01-16T16:48:51;3.70;64.10
61374;DHT22;47242;48.158;-1.586;2024-01-16T16:51:22;3.70;64.50
61374;DHT22;47242;48.158;-1.586;2024-01-16T16:53:48;3.70;64.40
61374;DHT22;47242;48.158;-1.586;2024-01-16T16:56:17;3.70;64.20
61374;DHT22;47242;48.158;-1.586;2024-01-16T16:58:46;3.70;64.50
61374;DHT22;47242;48.158;-1.586;2024-01-16T17:01:15;3.70;64.70
61374;DHT22;47242;48.158;-1.586;2024-01-16T17:03:42;3.70;64.80
61374;DHT22;47242;48.158;-1.586;2024-01-16T17:06:09;3.70;65.00
61374;DHT22;47242;48.158;-1.586;2024-01-16T17:08:35;3.70;65.20
61374;DHT22;47242;48.158;-1.586;2024-01-16T17:11:02;3.70;65.30
61374;DHT22;47242;48.158;-1.586;2024-01-16T17:13:30;3.70;65.30
61374;DHT22;47242;48.158;-1.586;2024-01-16T17:15:56;3.70;65.50
61374;DHT22;47242;48.158;-1.586;2024-01-16T17:18:22;3.80;65.50
61374;DHT22;47242;48.158;-1.586;2024-01-16T17:20:48;3.70;65.30
61374;DHT22;47242;48.158;-1.586;2024-01-16T17:23:13;3.60;65.10
61374;DHT22;47242;48.158;-1.586;2024-01-16T17:25:39;3.70;65.60
61374;DHT22;47242;48.158;-1.586;2024-01-16T17:28:05;3.70;65.30
61374;DHT22;47242;48.158;-1.586;2024-01-16T17:30:32;3.60;65.40
61374;DHT22;47242;48.158;-1.586;2024-01-16T17:32:57;3.60;65.50
61374;DHT22;47242;48.158;-1.586;2024-01-16T17:35:23;3.50;65.70
61374;DHT22;47242;48.158;-1.586;2024-01-16T17:37:59;3.60;65.90
61374;DHT22;47242;48.158;-1.586;2024-01-16T17:40:25;3.60;65.80
61374;DHT22;47242;48.158;-1.586;2024-01-16T17:42:50;3.50;65.80
61374;DHT22;47242;48.158;-1.586;2024-01-16T17:45:16;3.60;66.10
61374;DHT22;47242;48.158;-1.586;2024-01-16T17:47:42;3.60;66.10
61374;DHT22;47242;48.158;-1.586;2024-01-16T17:50:08;3.60;66.20
61374;DHT22;47242;48.158;-1.586;2024-01-16T17:52:35;3.60;66.30
61374;DHT22;47242;48.158;-1.586;2024-01-16T17:55:01;3.60;66.30
61374;DHT22;47242;48.158;-1.586;2024-01-16T17:57:27;3.60;66.30
61374;DHT22;47242;48.158;-1.586;2024-01-16T17:59:54;3.60;66.50
61374;DHT22;47242;48.158;-1.586;2024-01-16T18:02:20;3.60;66.60
61374;DHT22;47242;48.158;-1.586;2024-01-16T18:04:46;3.60;67.10
61374;DHT22;47242;48.158;-1.586;2024-01-16T18:07:11;3.50;67.40
61374;DHT22;47242;48.158;-1.586;2024-01-16T18:09:39;3.50;67.60
61374;DHT22;47242;48.158;-1.586;2024-01-16T18:12:05;3.50;67.70
61374;DHT22;47242;48.158;-1.586;2024-01-16T18:14:30;3.50;67.90
61374;DHT22;47242;48.158;-1.586;2024-01-16T18:16:56;3.50;67.90
61374;DHT22;47242;48.158;-1.586;2024-01-16T18:19:25;3.50;68.00
61374;DHT22;47242;48.158;-1.586;2024-01-16T18:21:51;3.50;68.00
61374;DHT22;47242;48.158;-1.586;2024-01-16T18:24:17;3.40;68.30
61374;DHT22;47242;48.158;-1.586;2024-01-16T18:26:44;3.40;68.70
61374;DHT22;47242;48.158;-1.586;2024-01-16T18:29:13;3.40;69.00
61374;DHT22;47242;48.158;-1.586;2024-01-16T18:31:39;3.30;69.60
61374;DHT22;47242;48.158;-1.586;2024-01-16T18:34:06;3.30;70.10
61374;DHT22;47242;48.158;-1.586;2024-01-16T18:36:38;3.30;70.50
61374;DHT22;47242;48.158;-1.586;2024-01-16T18:39:03;3.30;70.70
61374;DHT22;47242;48.158;-1.586;2024-01-16T18:41:29;3.20;71.10
61374;DHT22;47242;48.158;-1.586;2024-01-16T18:43:55;3.20;71.30
61374;DHT22;47242;48.158;-1.586;2024-01-16T18:46:21;3.20;71.40
61374;DHT22;47242;48.158;-1.586;2024-01-16T18:48:51;3.20;71.60
61374;DHT22;47242;48.158;-1.586;2024-01-16T18:51:18;3.20;71.60
61374;DHT22;47242;48.158;-1.586;2024-01-16T18:53:43;3.30;71.70
61374;DHT22;47242;48.158;-1.586;2024-01-16T18:56:15;3.20;71.60
61374;DHT22;47242;48.158;-1.586;2024-01-16T18:58:43;3.20;71.30
61374;DHT22;47242;48.158;-1.586;2024-01-16T19:01:10;3.20;71.50
61374;DHT22;47242;48.158;-1.586;2024-01-16T19:03:36;3.20;71.50
61374;DHT22;47242;48.158;-1.586;2024-01-16T19:06:04;3.20;71.70
61374;DHT22;47242;48.158;-1.586;2024-01-16T19:08:39;3.20;71.60
61374;DHT22;47242;48.158;-1.586;2024-01-16T19:11:07;3.20;71.90
61374;DHT22;47242;48.158;-1.586;2024-01-16T19:13:33;3.20;71.90
61374;DHT22;47242;48.158;-1.586;2024-01-16T19:15:59;3.20;72.00
61374;DHT22;47242;48.158;-1.586;2024-01-16T19:18:26;3.20;72.30
61374;DHT22;47242;48.158;-1.586;2024-01-16T19:20:52;3.20;72.30
61374;DHT22;47242;48.158;-1.586;2024-01-16T19:23:17;3.20;72.30
61374;DHT22;47242;48.158;-1.586;2024-01-16T19:25:45;3.20;72.40
61374;DHT22;47242;48.158;-1.586;2024-01-16T19:28:13;3.20;72.60
61374;DHT22;47242;48.158;-1.586;2024-01-16T19:30:38;3.20;73.10
61374;DHT22;47242;48.158;-1.586;2024-01-16T19:33:04;3.20;74.00
61374;DHT22;47242;48.158;-1.586;2024-01-16T19:35:34;3.10;74.00
61374;DHT22;47242;48.158;-1.586;2024-01-16T19:38:00;3.20;74.70
61374;DHT22;47242;48.158;-1.586;2024-01-16T19:40:26;3.20;74.60
61374;DHT22;47242;48.158;-1.586;2024-01-16T19:42:52;3.20;74.60
61374;DHT22;47242;48.158;-1.586;2024-01-16T19:45:19;3.10;74.70
61374;DHT22;47242;48.158;-1.586;2024-01-16T19:47:45;3.00;75.00
61374;DHT22;47242;48.158;-1.586;2024-01-16T19:50:11;3.00;75.50
61374;DHT22;47242;48.158;-1.586;2024-01-16T19:52:46;3.00;76.20
61374;DHT22;47242;48.158;-1.586;2024-01-16T19:55:15;3.00;76.40
61374;DHT22;47242;48.158;-1.586;2024-01-16T19:57:44;3.00;77.00
61374;DHT22;47242;48.158;-1.586;2024-01-16T20:00:11;2.90;77.50
61374;DHT22;47242;48.158;-1.586;2024-01-16T20:02:37;2.90;77.90
61374;DHT22;47242;48.158;-1.586;2024-01-16T20:05:03;2.80;77.90
61374;DHT22;47242;48.158;-1.586;2024-01-16T20:07:28;2.80;78.50
61374;DHT22;47242;48.158;-1.586;2024-01-16T20:09:54;2.80;78.70
61374;DHT22;47242;48.158;-1.586;2024-01-16T20:12:21;2.70;79.30
61374;DHT22;47242;48.158;-1.586;2024-01-16T20:14:47;2.70;79.90
61374;DHT22;47242;48.158;-1.586;2024-01-16T20:17:13;2.70;80.50
61374;DHT22;47242;48.158;-1.586;2024-01-16T20:19:42;2.70;81.50
61374;DHT22;47242;48.158;-1.586;2024-01-16T20:22:08;2.60;81.70
61374;DHT22;47242;48.158;-1.586;2024-01-16T20:24:33;2.50;82.50
61374;DHT22;47242;48.158;-1.586;2024-01-16T20:27:01;2.40;83.50
61374;DHT22;47242;48.158;-1.586;2024-01-16T20:29:27;2.40;84.20
61374;DHT22;47242;48.158;-1.586;2024-01-16T20:31:53;2.30;84.10
61374;DHT22;47242;48.158;-1.586;2024-01-16T20:34:22;2.20;84.60
61374;DHT22;47242;48.158;-1.586;2024-01-16T20:36:47;2.20;85.20
61374;DHT22;47242;48.158;-1.586;2024-01-16T20:39:20;2.20;84.80
61374;DHT22;47242;48.158;-1.586;2024-01-16T20:41:46;2.20;85.00
61374;DHT22;47242;48.158;-1.586;2024-01-16T20:44:11;2.10;85.20
61374;DHT22;47242;48.158;-1.586;2024-01-16T20:46:43;2.00;85.50
61374;DHT22;47242;48.158;-1.586;2024-01-16T20:49:09;2.00;86.30
61374;DHT22;47242;48.158;-1.586;2024-01-16T20:51:35;2.00;86.40
61374;DHT22;47242;48.158;-1.586;2024-01-16T20:54:00;2.00;86.60
61374;DHT22;47242;48.158;-1.586;2024-01-16T20:56:27;1.90;86.50
61374;DHT22;47242;48.158;-1.586;2024-01-16T20:58:53;1.80;87.30
61374;DHT22;47242;48.158;-1.586;2024-01-16T21:01:18;1.80;87.70
61374;DHT22;47242;48.158;-1.586;2024-01-16T21:03:44;1.80;87.90
61374;DHT22;47242;48.158;-1.586;2024-01-16T21:06:12;1.70;88.50
61374;DHT22;47242;48.158;-1.586;2024-01-16T21:08:38;1.80;88.60